sensor_id;sensor_type;location;lat;lon;timestamp;temperature;humidity
21310;DHT22;10814;51.722;8.772;2024-02-21T00:01:42;8.60;99.90
21310;DHT22;10814;51.722;8.772;2024-02-21T00:04:08;8.50;99.90
21310;DHT22;10814;51.722;8.772;2024-02-21T00:06:33;8.50;99.90
21310;DHT22;10814;51.722;8.772;2024-02-21T00:08:59;8.60;99.90
21310;DHT22;10814;51.722;8.772;2024-02-21T00:11:24;8.60;99.90
21310;DHT22;10814;51.722;8.772;2024-02-21T00:13:50;8.60;99.90
21310;DHT22;10814;51.722;8.772;2024-02-21T00:16:16;8.60;99.90
21310;DHT22;10814;51.722;8.772;2024-02-21T00:18:43;8.60;99.90
21310;DHT22;10814;51.722;8.772;2024-02-21T00:21:08;8.60;99.90
21310;DHT22;10814;51.722;8.772;2024-02-21T00:23:34;8.60;99.90
21310;DHT22;10814;51.722;8.772;2024-02-21T00:26:00;8.60;99.90
21310;DHT22;10814;51.722;8.772;2024-02-21T00:28:25;8.60;99.90
21310;DHT22;10814;51.722;8.772;2024-02-21T00:30:51;8.60;99.90
21310;DHT22;10814;51.722;8.772;2024-02-21T00:33:18;8.60;99.90
21310;DHT22;10814;51.722;8.772;2024-02-21T00:35:44;8.60;99.90
21310;DHT22;10814;51.722;8.772;2024-02-21T00:38:10;8.60;99.90
21310;DHT22;10814;51.722;8.772;2024-02-21T00:40:35;8.60;99.90
21310;DHT22;10814;51.722;8.772;2024-02-21T00:43:01;8.60;99.90
21310;DHT22;10814;51.722;8.772;2024-02-21T00:45:26;8.60;99.90
21310;DHT22;10814;51.722;8.772;2024-02-21T00:47:52;8.60;99.90
21310;DHT22;10814;51.722;8.772;2024-02-21T00:50:18;8.60;99.90
21310;DHT22;10814;51.722;8.772;2024-02-21T00:52:43;8.60;99.90
21310;DHT22;10814;51.722;8.772;2024-02-21T00:55:10;8.60;99.90
21310;DHT22;10814;51.722;8.772;2024-02-21T00:57:36;8.60;99.90
21310;DHT22;10814;51.722;8.772;2024-02-21T01:00:02;8.60;99.90
21310;DHT22;10814;51.722;8.772;2024-02-21T01:02:28;8.60;99.90
21310;DHT22;10814;51.722;8.772;2024-02-21T01:04:57;8.60;99.90
21310;DHT22;10814;51.722;8.772;2024-02-21T01:07:22;8.60;99.90
21310;DHT22;10814;51.722;8.772;2024-02-21T01:09:48;8.60;99.90
21310;DHT22;10814;51.722;8.772;2024-02-21T01:12:14;8.60;99.90
21310;DHT22;10814;51.722;8.772;2024-02-21T01:14:39;8.60;99.90
21310;DHT22;10814;51.722;8.772;2024-02-21T01:17:05;8.60;99.90
21310;DHT22;10814;51.722;8.772;2024-02-21T01:19:31;8.60;99.90
21310;DHT22;10814;51.722;8.772;2024-02-21T01:21:57;8.60;99.90
21310;DHT22;10814;51.722;8.772;2024-02-21T01:24:22;8.60;99.90
21310;DHT22;10814;51.722;8.772;2024-02-21T01:26:49;8.60;99.90
21310;DHT22;10814;51.722;8.772;2024-02-21T01:29:15;8.60;99.90
21310;DHT22;10814;51.722;8.772;2024-02-21T01:31:40;8.60;99.90
21310;DHT22;10814;51.722;8.772;2024-02-21T01:34:06;8.60;99.90
21310;DHT22;10814;51.722;8.772;2024-02-21T01:36:31;8.60;99.90
21310;DHT22;10814;51.722;8.772;2024-02-21T01:38:57;8.60;99.90
21310;DHT22;10814;51.722;8.772;2024-02-21T01:41:22;8.60;99.90
21310;DHT22;10814;51.722;8.772;2024-02-21T01:43:48;8.60;99.90
21310;DHT22;10814;51.722;8.772;2024-02-21T01:46:13;8.70;99.90
21310;DHT22;10814;51.722;8.772;2024-02-21T01:48:39;8.70;99.90
21310;DHT22;10814;51.722;8.772;2024-02-21T01:51:05;8.70;99.90
21310;DHT22;10814;51.722;8.772;2024-02-21T01:53:35;8.70;99.90
21310;DHT22;10814;51.722;8.772;2024-02-21T01:56:02;8.70;99.90
21310;DHT22;10814;51.722;8.772;2024-02-21T01:58:30;8.70;99.90
21310;DHT22;10814;51.722;8.772;2024-02-21T02:00:57;8.70;99.90
21310;DHT22;10814;51.722;8.772;2024-02-21T02:03:23;8.80;99.90
21310;DHT22;10814;51.722;8.772;2024-02-21T02:05:51;8.70;99.90
21310;DHT22;10814;51.722;8.772;2024-02-21T02:08:20;8.80;99.90
21310;DHT22;10814;51.722;8.772;2024-02-21T02:10:49;8.70;99.90
21310;DHT22;10814;51.722;8.772;2024-02-21T02:13:15;8.80;99.90
21310;DHT22;10814;51.722;8.772;2024-02-21T02:15:45;8.80;99.90
21310;DHT22;10814;51.722;8.772;2024-02-21T02:18:11;8.80;99.90
21310;DHT22;10814;51.722;8.772;2024-02-21T02:20:37;8.80;99.90
21310;DHT22;10814;51.722;8.772;2024-02-21T02:25:33;8.80;99.90
21310;DHT22;10814;51.722;8.772;2024-02-21T02:27:58;8.80;99.90
21310;DHT22;10814;51.722;8.772;2024-02-21T02:30:24;8.80;99.90
21310;DHT22;10814;51.722;8.772;2024-02-21T02:32:50;8.80;99.90
21310;DHT22;10814;51.722;8.772;2024-02-21T02:35:15;8.80;99.90
21310;DHT22;10814;51.722;8.772;2024-02-21T02:37:48;8.70;99.90
21310;DHT22;10814;51.722;8.772;2024-02-21T02:40:14;8.70;99.90
21310;DHT22;10814;51.722;8.772;2024-02-21T02:42:40;8.70;99.90
21310;DHT22;10814;51.722;8.772;2024-02-21T02:45:06;8.80;99.90
21310;DHT22;10814;51.722;8.772;2024-02-21T02:47:32;8.80;99.90
21310;DHT22;10814;51.722;8.772;2024-02-21T02:50:00;8.70;99.90
21310;DHT22;10814;51.722;8.772;2024-02-21T02:52:25;8.80;99.90
21310;DHT22;10814;51.722;8.772;2024-02-21T02:54:51;8.70;99.90
21310;DHT22;10814;51.722;8.772;2024-02-21T02:57:18;8.70;99.90
21310;DHT22;10814;51.722;8.772;2024-02-21T02:59:50;8.70;99.90
21310;DHT22;10814;51.722;8.772;2024-02-21T03:02:17;8.70;99.90
21310;DHT22;10814;51.722;8.772;2024-02-21T03:04:43;8.70;99.90
21310;DHT22;10814;51.722;8.772;2024-02-21T03:07:09;8.70;99.90
21310;DHT22;10814;51.722;8.772;2024-02-21T03:09:37;8.70;99.90
21310;DHT22;10814;51.722;8.772;2024-02-21T03:12:02;8.80;99.90
21310;DHT22;10814;51.722;8.772;2024-02-21T03:14:31;8.80;99.90
21310;DHT22;10814;51.722;8.772;2024-02-21T03:17:00;8.70;99.90
21310;DHT22;10814;51.722;8.772;2024-02-21T03:19:26;8.70;99.90
21310;DHT22;10814;51.722;8.772;2024-02-21T03:21:52;8.80;99.90
21310;DHT22;10814;51.722;8.772;2024-02-21T03:24:21;8.80;99.90
21310;DHT22;10814;51.722;8.772;2024-02-21T03:26:47;8.80;99.90
21310;DHT22;10814;51.722;8.772;2024-02-21T03:29:15;8.80;99.90
21310;DHT22;10814;51.722;8.772;2024-02-21T03:31:41;8.80;99.90
21310;DHT22;10814;51.722;8.772;2024-02-21T03:34:07;8.70;99.90
21310;DHT22;10814;51.722;8.772;2024-02-21T03:36:33;8.80;99.90
21310;DHT22;10814;51.722;8.772;2024-02-21T03:38:58;8.80;99.90
21310;DHT22;10814;51.722;8.772;2024-02-21T03:41:24;8.70;99.90
21310;DHT22;10814;51.722;8.772;2024-02-21T03:43:50;8.80;99.90
21310;DHT22;10814;51.722;8.772;2024-02-21T03:46:15;8.80;99.90
21310;DHT22;10814;51.722;8.772;2024-02-21T03:48:41;8.80;99.90
21310;DHT22;10814;51.722;8.772;2024-02-21T03:51:08;8.80;99.90
21310;DHT22;10814;51.722;8.772;2024-02-21T03:53:33;8.80;99.90
21310;DHT22;10814;51.722;8.772;2024-02-21T03:56:03;8.80;99.90
21310;DHT22;10814;51.722;8.772;2024-02-21T03:58:30;8.80;99.90
21310;DHT22;10814;51.722;8.772;2024-02-21T04:00:56;8.80;99.90
21310;DHT22;10814;51.722;8.772;2024-02-21T04:03:21;8.80;99.90
21310;DHT22;10814;51.722;8.772;2024-02-21T04:05:47;8.80;99.90
21310;DHT22;10814;51.722;8.772;2024-02-21T04:08:13;8.80;99.90
21310;DHT22;10814;51.722;8.772;2024-02-21T04:10:39;8.80;99.90
21310;DHT22;10814;51.722;8.772;2024-02-21T04:13:06;8.80;99.90
21310;DHT22;10814;51.722;8.772;2024-02-21T04:15:34;8.80;99.90
21310;DHT22;10814;51.722;8.772;2024-02-21T04:18:00;8.80;99.90
21310;DHT22;10814;51.722;8.772;2024-02-21T04:20:26;8.80;99.90
21310;DHT22;10814;51.722;8.772;2024-02-21T04:22:51;8.80;99.90
21310;DHT22;10814;51.722;8.772;2024-02-21T04:25:17;8.80;99.90
21310;DHT22;10814;51.722;8.772;2024-02-21T04:27:43;8.80;99.90
21310;DHT22;10814;51.722;8.772;2024-02-21T04:30:09;8.80;99.90
21310;DHT22;10814;51.722;8.772;2024-02-21T04:32:35;8.80;99.90
21310;DHT22;10814;51.722;8.772;2024-02-21T04:35:01;8.80;99.90
21310;DHT22;10814;51.722;8.772;2024-02-21T04:37:26;8.80;99.90
21310;DHT22;10814;51.722;8.772;2024-02-21T04:39:52;8.80;99.90
21310;DHT22;10814;51.722;8.772;2024-02-21T04:42:18;8.90;99.90
21310;DHT22;10814;51.722;8.772;2024-02-21T04:44:43;8.80;99.90
21310;DHT22;10814;51.722;8.772;2024-02-21T04:47:09;8.80;99.90
21310;DHT22;10814;51.722;8.772;2024-02-21T04:49:34;8.80;99.90
21310;DHT22;10814;51.722;8.772;2024-02-21T04:52:00;8.80;99.90
21310;DHT22;10814;51.722;8.772;2024-02-21T04:54:26;8.80;99.90
21310;DHT22;10814;51.722;8.772;2024-02-21T04:56:52;8.80;99.90
21310;DHT22;10814;51.722;8.772;2024-02-21T04:59:18;8.80;99.90
21310;DHT22;10814;51.722;8.772;2024-02-21T05:01:43;8.80;99.90
21310;DHT22;10814;51.722;8.772;2024-02-21T05:04:09;8.80;99.90
21310;DHT22;10814;51.722;8.772;2024-02-21T05:06:39;8.80;99.90
21310;DHT22;10814;51.722;8.772;2024-02-21T05:09:05;8.80;99.90
21310;DHT22;10814;51.722;8.772;2024-02-21T05:11:31;8.80;99.90
21310;DHT22;10814;51.722;8.772;2024-02-21T05:13:56;8.80;99.90
21310;DHT22;10814;51.722;8.772;2024-02-21T05:16:22;8.80;99.90
21310;DHT22;10814;51.722;8.772;2024-02-21T05:18:48;8.80;99.90
21310;DHT22;10814;51.722;8.772;2024-02-21T05:21:13;8.80;99.90
21310;DHT22;10814;51.722;8.772;2024-02-21T05:23:39;8.70;99.90
21310;DHT22;10814;51.722;8.772;2024-02-21T05:26:05;8.70;99.90
21310;DHT22;10814;51.722;8.772;2024-02-21T05:28:31;8.80;99.90
21310;DHT22;10814;51.722;8.772;2024-02-21T05:30:56;8.70;99.90
21310;DHT22;10814;51.722;8.772;2024-02-21T05:33:22;8.70;99.90
21310;DHT22;10814;51.722;8.772;2024-02-21T05:35:48;8.70;99.90
21310;DHT22;10814;51.722;8.772;2024-02-21T05:38:14;8.70;99.90
21310;DHT22;10814;51.722;8.772;2024-02-21T05:40:40;8.70;99.90
21310;DHT22;10814;51.722;8.772;2024-02-21T05:43:07;8.70;99.90
21310;DHT22;10814;51.722;8.772;2024-02-21T05:45:33;8.70;99.90
21310;DHT22;10814;51.722;8.772;2024-02-21T05:47:58;8.70;99.90
21310;DHT22;10814;51.722;8.772;2024-02-21T05:50:25;8.70;99.90
21310;DHT22;10814;51.722;8.772;2024-02-21T05:52:52;8.70;99.90
21310;DHT22;10814;51.722;8.772;2024-02-21T05:55:18;8.70;99.90
21310;DHT22;10814;51.722;8.772;2024-02-21T05:57:44;8.70;99.90
21310;DHT22;10814;51.722;8.772;2024-02-21T06:00:10;8.70;99.90
21310;DHT22;10814;51.722;8.772;2024-02-21T06:02:35;8.70;99.90
21310;DHT22;10814;51.722;8.772;2024-02-21T06:05:01;8.70;99.90
21310;DHT22;10814;51.722;8.772;2024-02-21T06:07:27;8.70;99.90
21310;DHT22;10814;51.722;8.772;2024-02-21T06:09:52;8.70;99.90
21310;DHT22;10814;51.722;8.772;2024-02-21T06:12:18;8.70;99.90
21310;DHT22;10814;51.722;8.772;2024-02-21T06:14:44;8.70;99.90
21310;DHT22;10814;51.722;8.772;2024-02-21T06:17:09;8.70;99.90
21310;DHT22;10814;51.722;8.772;2024-02-21T06:19:35;8.70;99.90
21310;DHT22;10814;51.722;8.772;2024-02-21T06:22:01;8.70;99.90
21310;DHT22;10814;51.722;8.772;2024-02-21T06:24:26;8.70;99.90
21310;DHT22;10814;51.722;8.772;2024-02-21T06:26:52;8.70;99.90
21310;DHT22;10814;51.722;8.772;2024-02-21T06:29:17;8.70;99.90
21310;DHT22;10814;51.722;8.772;2024-02-21T06:31:43;8.80;99.90
21310;DHT22;10814;51.722;8.772;2024-02-21T06:34:09;8.70;99.90
21310;DHT22;10814;51.722;8.772;2024-02-21T06:36:34;8.70;99.90
21310;DHT22;10814;51.722;8.772;2024-02-21T06:39:00;8.70;99.90
21310;DHT22;10814;51.722;8.772;2024-02-21T06:41:25;8.70;99.90
21310;DHT22;10814;51.722;8.772;2024-02-21T06:43:51;8.70;99.90
21310;DHT22;10814;51.722;8.772;2024-02-21T06:46:27;8.80;99.90
21310;DHT22;10814;51.722;8.772;2024-02-21T06:48:54;8.80;99.90
21310;DHT22;10814;51.722;8.772;2024-02-21T06:51:21;8.80;99.90
21310;DHT22;10814;51.722;8.772;2024-02-21T06:53:47;8.80;99.90
21310;DHT22;10814;51.722;8.772;2024-02-21T06:56:13;8.80;99.90
21310;DHT22;10814;51.722;8.772;2024-02-21T06:58:39;8.80;99.90
21310;DHT22;10814;51.722;8.772;2024-02-21T07:01:05;8.70;99.90
21310;DHT22;10814;51.722;8.772;2024-02-21T07:03:30;8.80;99.90
21310;DHT22;10814;51.722;8.772;2024-02-21T07:05:56;8.80;99.90
21310;DHT22;10814;51.722;8.772;2024-02-21T07:08:22;8.80;99.90
21310;DHT22;10814;51.722;8.772;2024-02-21T07:10:47;8.80;99.90
21310;DHT22;10814;51.722;8.772;2024-02-21T07:13:13;8.90;99.90
21310;DHT22;10814;51.722;8.772;2024-02-21T07:15:41;8.90;99.90
21310;DHT22;10814;51.722;8.772;2024-02-21T07:18:06;8.90;99.90
21310;DHT22;10814;51.722;8.772;2024-02-21T07:20:32;8.90;99.90
21310;DHT22;10814;51.722;8.772;2024-02-21T07:22:59;9.00;99.90
21310;DHT22;10814;51.722;8.772;2024-02-21T07:25:25;8.90;99.90
21310;DHT22;10814;51.722;8.772;2024-02-21T07:27:50;9.00;99.90
21310;DHT22;10814;51.722;8.772;2024-02-21T07:30:16;9.00;99.90
21310;DHT22;10814;51.722;8.772;2024-02-21T07:32:41;9.10;99.90
21310;DHT22;10814;51.722;8.772;2024-02-21T07:35:07;9.10;99.90
21310;DHT22;10814;51.722;8.772;2024-02-21T07:37:37;9.10;99.90
21310;DHT22;10814;51.722;8.772;2024-02-21T07:40:06;9.10;99.90
21310;DHT22;10814;51.722;8.772;2024-02-21T07:42:32;9.10;99.90
21310;DHT22;10814;51.722;8.772;2024-02-21T07:44:58;9.10;99.90
21310;DHT22;10814;51.722;8.772;2024-02-21T07:47:24;9.10;99.90
21310;DHT22;10814;51.722;8.772;2024-02-21T07:49:49;9.10;99.90
21310;DHT22;10814;51.722;8.772;2024-02-21T07:52:15;9.20;99.90
21310;DHT22;10814;51.722;8.772;2024-02-21T07:54:41;9.20;99.90
21310;DHT22;10814;51.722;8.772;2024-02-21T07:57:09;9.20;99.90
21310;DHT22;10814;51.722;8.772;2024-02-21T07:59:35;9.40;99.90
21310;DHT22;10814;51.722;8.772;2024-02-21T08:02:00;9.50;99.90
21310;DHT22;10814;51.722;8.772;2024-02-21T08:04:26;9.60;99.90
21310;DHT22;10814;51.722;8.772;2024-02-21T08:06:55;9.70;99.90
21310;DHT22;10814;51.722;8.772;2024-02-21T08:09:27;9.70;99.90
21310;DHT22;10814;51.722;8.772;2024-02-21T08:11:54;9.70;99.90
21310;DHT22;10814;51.722;8.772;2024-02-21T08:14:19;9.60;99.90
21310;DHT22;10814;51.722;8.772;2024-02-21T08:16:45;9.60;99.90
21310;DHT22;10814;51.722;8.772;2024-02-21T08:19:11;9.50;99.90
21310;DHT22;10814;51.722;8.772;2024-02-21T08:21:36;9.50;99.90
21310;DHT22;10814;51.722;8.772;2024-02-21T08:24:02;9.50;99.90
21310;DHT22;10814;51.722;8.772;2024-02-21T08:26:28;9.50;99.90
21310;DHT22;10814;51.722;8.772;2024-02-21T08:28:56;9.50;99.90
21310;DHT22;10814;51.722;8.772;2024-02-21T08:31:25;9.50;99.90
21310;DHT22;10814;51.722;8.772;2024-02-21T08:34:00;9.50;99.90
21310;DHT22;10814;51.722;8.772;2024-02-21T08:36:33;9.50;99.90
21310;DHT22;10814;51.722;8.772;2024-02-21T08:39:03;9.50;99.90
21310;DHT22;10814;51.722;8.772;2024-02-21T08:41:37;9.50;99.90
21310;DHT22;10814;51.722;8.772;2024-02-21T08:44:04;9.60;99.90
21310;DHT22;10814;51.722;8.772;2024-02-21T08:46:29;9.60;99.90
21310;DHT22;10814;51.722;8.772;2024-02-21T08:48:55;9.70;99.90
21310;DHT22;10814;51.722;8.772;2024-02-21T08:51:21;9.80;99.90
21310;DHT22;10814;51.722;8.772;2024-02-21T08:53:47;9.80;99.90
21310;DHT22;10814;51.722;8.772;2024-02-21T08:56:13;9.80;99.90
21310;DHT22;10814;51.722;8.772;2024-02-21T08:58:40;9.90;99.90
21310;DHT22;10814;51.722;8.772;2024-02-21T09:01:06;9.90;99.90
21310;DHT22;10814;51.722;8.772;2024-02-21T09:03:38;9.90;99.90
21310;DHT22;10814;51.722;8.772;2024-02-21T09:06:05;9.90;99.90
21310;DHT22;10814;51.722;8.772;2024-02-21T09:08:32;9.90;99.90
21310;DHT22;10814;51.722;8.772;2024-02-21T09:10:57;9.90;99.90
21310;DHT22;10814;51.722;8.772;2024-02-21T09:13:23;10.00;99.90
21310;DHT22;10814;51.722;8.772;2024-02-21T09:15:49;10.00;99.90
21310;DHT22;10814;51.722;8.772;2024-02-21T09:18:15;10.00;99.90
21310;DHT22;10814;51.722;8.772;2024-02-21T09:20:41;10.10;99.90
21310;DHT22;10814;51.722;8.772;2024-02-21T09:23:07;10.00;99.90
21310;DHT22;10814;51.722;8.772;2024-02-21T09:25:33;10.10;99.90
21310;DHT22;10814;51.722;8.772;2024-02-21T09:27:59;10.10;99.90
21310;DHT22;10814;51.722;8.772;2024-02-21T09:30:26;10.10;99.90
21310;DHT22;10814;51.722;8.772;2024-02-21T09:32:52;10.10;99.90
21310;DHT22;10814;51.722;8.772;2024-02-21T09:35:18;10.30;99.90
21310;DHT22;10814;51.722;8.772;2024-02-21T09:37:44;10.30;99.90
21310;DHT22;10814;51.722;8.772;2024-02-21T09:40:15;10.40;99.90
21310;DHT22;10814;51.722;8.772;2024-02-21T09:42:42;10.40;99.90
21310;DHT22;10814;51.722;8.772;2024-02-21T09:50:29;10.30;99.90
21310;DHT22;10814;51.722;8.772;2024-02-21T09:52:57;10.30;99.90
21310;DHT22;10814;51.722;8.772;2024-02-21T09:55:25;10.30;99.90
21310;DHT22;10814;51.722;8.772;2024-02-21T09:57:53;10.30;99.90
21310;DHT22;10814;51.722;8.772;2024-02-21T10:00:19;10.30;99.90
21310;DHT22;10814;51.722;8.772;2024-02-21T10:02:48;10.30;99.90
21310;DHT22;10814;51.722;8.772;2024-02-21T10:05:15;10.40;99.90
21310;DHT22;10814;51.722;8.772;2024-02-21T10:07:41;10.40;99.90
21310;DHT22;10814;51.722;8.772;2024-02-21T10:10:07;10.40;99.90
21310;DHT22;10814;51.722;8.772;2024-02-21T10:12:33;10.50;99.90
21310;DHT22;10814;51.722;8.772;2024-02-21T10:17:28;10.60;99.90
21310;DHT22;10814;51.722;8.772;2024-02-21T10:19:53;10.60;99.90
21310;DHT22;10814;51.722;8.772;2024-02-21T10:22:19;10.50;99.90
21310;DHT22;10814;51.722;8.772;2024-02-21T10:24:46;10.50;99.90
21310;DHT22;10814;51.722;8.772;2024-02-21T10:27:12;10.60;99.90
21310;DHT22;10814;51.722;8.772;2024-02-21T10:29:38;10.60;99.90
21310;DHT22;10814;51.722;8.772;2024-02-21T10:32:08;10.60;99.90
21310;DHT22;10814;51.722;8.772;2024-02-21T10:34:35;10.70;99.90
21310;DHT22;10814;51.722;8.772;2024-02-21T10:37:05;10.90;99.90
21310;DHT22;10814;51.722;8.772;2024-02-21T10:39:37;11.10;99.90
21310;DHT22;10814;51.722;8.772;2024-02-21T10:42:04;11.40;99.90
21310;DHT22;10814;51.722;8.772;2024-02-21T10:44:31;11.60;99.90
21310;DHT22;10814;51.722;8.772;2024-02-21T10:46:57;11.80;99.90
21310;DHT22;10814;51.722;8.772;2024-02-21T10:49:27;11.80;99.90
21310;DHT22;10814;51.722;8.772;2024-02-21T10:56:57;12.90;99.90
21310;DHT22;10814;51.722;8.772;2024-02-21T10:59:24;12.80;99.90
21310;DHT22;10814;51.722;8.772;2024-02-21T11:01:51;12.60;99.90
21310;DHT22;10814;51.722;8.772;2024-02-21T11:04:18;12.40;99.90
21310;DHT22;10814;51.722;8.772;2024-02-21T11:06:44;12.20;99.90
21310;DHT22;10814;51.722;8.772;2024-02-21T11:09:11;11.90;99.90
21310;DHT22;10814;51.722;8.772;2024-02-21T11:11:40;11.70;99.90
21310;DHT22;10814;51.722;8.772;2024-02-21T11:16:37;11.60;99.90
21310;DHT22;10814;51.722;8.772;2024-02-21T11:19:06;11.90;99.90
21310;DHT22;10814;51.722;8.772;2024-02-21T11:21:44;11.70;99.90
21310;DHT22;10814;51.722;8.772;2024-02-21T11:24:10;11.70;99.90
21310;DHT22;10814;51.722;8.772;2024-02-21T11:26:37;11.80;99.90
21310;DHT22;10814;51.722;8.772;2024-02-21T11:29:03;11.90;99.90
21310;DHT22;10814;51.722;8.772;2024-02-21T11:31:44;11.80;99.90
21310;DHT22;10814;51.722;8.772;2024-02-21T11:34:16;11.80;99.90
21310;DHT22;10814;51.722;8.772;2024-02-21T11:36:49;11.80;99.90
21310;DHT22;10814;51.722;8.772;2024-02-21T11:39:25;11.80;99.90
21310;DHT22;10814;51.722;8.772;2024-02-21T11:42:05;11.80;99.90
21310;DHT22;10814;51.722;8.772;2024-02-21T11:44:31;12.10;99.90
21310;DHT22;10814;51.722;8.772;2024-02-21T11:46:57;12.50;99.90
21310;DHT22;10814;51.722;8.772;2024-02-21T11:49:30;12.40;99.90
21310;DHT22;10814;51.722;8.772;2024-02-21T11:52:00;12.30;99.90
21310;DHT22;10814;51.722;8.772;2024-02-21T11:54:27;12.30;99.90
21310;DHT22;10814;51.722;8.772;2024-02-21T11:56:52;12.30;99.90
21310;DHT22;10814;51.722;8.772;2024-02-21T11:59:21;12.00;99.90
21310;DHT22;10814;51.722;8.772;2024-02-21T12:01:48;11.60;99.90
21310;DHT22;10814;51.722;8.772;2024-02-21T12:04:14;11.50;99.90
21310;DHT22;10814;51.722;8.772;2024-02-21T12:06:43;11.40;99.90
21310;DHT22;10814;51.722;8.772;2024-02-21T12:09:08;11.20;99.90
21310;DHT22;10814;51.722;8.772;2024-02-21T12:11:37;11.10;99.90
21310;DHT22;10814;51.722;8.772;2024-02-21T12:14:03;11.10;99.90
21310;DHT22;10814;51.722;8.772;2024-02-21T12:16:31;11.10;99.90
21310;DHT22;10814;51.722;8.772;2024-02-21T12:18:58;11.00;99.90
21310;DHT22;10814;51.722;8.772;2024-02-21T12:21:25;11.00;99.90
21310;DHT22;10814;51.722;8.772;2024-02-21T12:23:54;10.90;99.90
21310;DHT22;10814;51.722;8.772;2024-02-21T12:26:19;10.90;99.90
21310;DHT22;10814;51.722;8.772;2024-02-21T12:28:45;10.80;99.90
21310;DHT22;10814;51.722;8.772;2024-02-21T12:31:11;10.80;99.90
21310;DHT22;10814;51.722;8.772;2024-02-21T12:33:36;10.90;99.90
21310;DHT22;10814;51.722;8.772;2024-02-21T12:36:02;10.90;99.90
21310;DHT22;10814;51.722;8.772;2024-02-21T12:38:31;10.90;99.90
21310;DHT22;10814;51.722;8.772;2024-02-21T12:41:06;11.00;99.90
21310;DHT22;10814;51.722;8.772;2024-02-21T12:43:34;11.00;99.90
21310;DHT22;10814;51.722;8.772;2024-02-21T12:46:00;11.20;99.90
21310;DHT22;10814;51.722;8.772;2024-02-21T12:48:34;11.40;99.90
21310;DHT22;10814;51.722;8.772;2024-02-21T12:51:00;11.70;99.90
21310;DHT22;10814;51.722;8.772;2024-02-21T12:53:25;12.00;99.90
21310;DHT22;10814;51.722;8.772;2024-02-21T12:55:51;12.10;99.90
21310;DHT22;10814;51.722;8.772;2024-02-21T12:58:17;12.10;99.90
21310;DHT22;10814;51.722;8.772;2024-02-21T13:00:42;12.00;99.90
21310;DHT22;10814;51.722;8.772;2024-02-21T13:03:09;11.80;99.90
21310;DHT22;10814;51.722;8.772;2024-02-21T13:05:37;11.70;99.90
21310;DHT22;10814;51.722;8.772;2024-02-21T13:08:08;11.50;99.90
21310;DHT22;10814;51.722;8.772;2024-02-21T13:10:34;11.40;99.90
21310;DHT22;10814;51.722;8.772;2024-02-21T13:13:01;11.30;99.90
21310;DHT22;10814;51.722;8.772;2024-02-21T13:15:30;11.30;99.90
21310;DHT22;10814;51.722;8.772;2024-02-21T13:17:58;11.20;99.90
21310;DHT22;10814;51.722;8.772;2024-02-21T13:20:33;11.10;99.90
21310;DHT22;10814;51.722;8.772;2024-02-21T13:22:59;11.10;99.90
21310;DHT22;10814;51.722;8.772;2024-02-21T13:25:25;11.20;99.90
21310;DHT22;10814;51.722;8.772;2024-02-21T13:27:50;11.20;99.90
21310;DHT22;10814;51.722;8.772;2024-02-21T13:30:16;11.30;99.90
21310;DHT22;10814;51.722;8.772;2024-02-21T13:32:44;11.40;99.90
21310;DHT22;10814;51.722;8.772;2024-02-21T13:35:12;11.50;99.90
21310;DHT22;10814;51.722;8.772;2024-02-21T13:37:38;11.60;99.90
21310;DHT22;10814;51.722;8.772;2024-02-21T13:40:05;11.70;99.90
21310;DHT22;10814;51.722;8.772;2024-02-21T13:42:31;11.80;99.90
21310;DHT22;10814;51.722;8.772;2024-02-21T13:44:56;11.80;99.90
21310;DHT22;10814;51.722;8.772;2024-02-21T13:47:22;11.90;99.90
21310;DHT22;10814;51.722;8.772;2024-02-21T13:49:48;11.90;99.90
21310;DHT22;10814;51.722;8.772;2024-02-21T13:52:14;11.90;99.90
21310;DHT22;10814;51.722;8.772;2024-02-21T13:54:40;12.00;99.90
21310;DHT22;10814;51.722;8.772;2024-02-21T13:57:05;11.90;99.90
21310;DHT22;10814;51.722;8.772;2024-02-21T13:59:31;11.80;99.90
21310;DHT22;10814;51.722;8.772;2024-02-21T14:01:59;11.80;99.90
21310;DHT22;10814;51.722;8.772;2024-02-21T14:04:24;11.70;99.90
21310;DHT22;10814;51.722;8.772;2024-02-21T14:06:50;11.60;99.90
21310;DHT22;10814;51.722;8.772;2024-02-21T14:09:15;11.70;99.90
21310;DHT22;10814;51.722;8.772;2024-02-21T14:11:43;11.70;99.90
21310;DHT22;10814;51.722;8.772;2024-02-21T14:14:10;11.70;99.90
21310;DHT22;10814;51.722;8.772;2024-02-21T14:16:36;11.70;99.90
21310;DHT22;10814;51.722;8.772;2024-02-21T14:19:01;11.70;99.90
21310;DHT22;10814;51.722;8.772;2024-02-21T14:21:27;11.80;99.90
21310;DHT22;10814;51.722;8.772;2024-02-21T14:23:54;11.80;99.90
21310;DHT22;10814;51.722;8.772;2024-02-21T14:26:20;11.80;99.90
21310;DHT22;10814;51.722;8.772;2024-02-21T14:28:47;11.80;99.90
21310;DHT22;10814;51.722;8.772;2024-02-21T14:31:12;11.70;99.90
21310;DHT22;10814;51.722;8.772;2024-02-21T14:33:38;11.70;99.90
21310;DHT22;10814;51.722;8.772;2024-02-21T14:36:04;11.70;99.90
21310;DHT22;10814;51.722;8.772;2024-02-21T14:38:30;11.70;99.90
21310;DHT22;10814;51.722;8.772;2024-02-21T14:40:56;11.70;99.90
21310;DHT22;10814;51.722;8.772;2024-02-21T14:43:24;11.70;99.90
21310;DHT22;10814;51.722;8.772;2024-02-21T14:45:59;11.60;99.90
21310;DHT22;10814;51.722;8.772;2024-02-21T14:48:27;11.50;99.90
21310;DHT22;10814;51.722;8.772;2024-02-21T14:50:54;11.40;99.90
21310;DHT22;10814;51.722;8.772;2024-02-21T14:53:19;11.40;99.90
21310;DHT22;10814;51.722;8.772;2024-02-21T14:55:45;11.40;99.90
21310;DHT22;10814;51.722;8.772;2024-02-21T14:58:11;11.30;99.90
21310;DHT22;10814;51.722;8.772;2024-02-21T15:00:36;11.20;99.90
21310;DHT22;10814;51.722;8.772;2024-02-21T15:03:02;11.10;99.90
21310;DHT22;10814;51.722;8.772;2024-02-21T15:05:28;11.10;99.90
21310;DHT22;10814;51.722;8.772;2024-02-21T15:07:56;11.00;99.90
21310;DHT22;10814;51.722;8.772;2024-02-21T15:10:23;11.00;99.90
21310;DHT22;10814;51.722;8.772;2024-02-21T15:12:48;11.00;99.90
21310;DHT22;10814;51.722;8.772;2024-02-21T15:15:14;10.90;99.90
21310;DHT22;10814;51.722;8.772;2024-02-21T15:17:40;10.90;99.90
21310;DHT22;10814;51.722;8.772;2024-02-21T15:20:06;10.90;99.90
21310;DHT22;10814;51.722;8.772;2024-02-21T15:22:36;10.90;99.90
21310;DHT22;10814;51.722;8.772;2024-02-21T15:25:02;11.00;99.90
21310;DHT22;10814;51.722;8.772;2024-02-21T15:27:30;10.90;99.90
21310;DHT22;10814;51.722;8.772;2024-02-21T15:29:55;10.90;99.90
21310;DHT22;10814;51.722;8.772;2024-02-21T15:32:22;10.90;99.90
21310;DHT22;10814;51.722;8.772;2024-02-21T15:34:48;10.90;99.90
21310;DHT22;10814;51.722;8.772;2024-02-21T15:37:16;10.90;99.90
21310;DHT22;10814;51.722;8.772;2024-02-21T15:39:42;10.90;99.90
21310;DHT22;10814;51.722;8.772;2024-02-21T15:42:09;10.90;99.90
21310;DHT22;10814;51.722;8.772;2024-02-21T15:44:35;10.90;99.90
21310;DHT22;10814;51.722;8.772;2024-02-21T15:47:01;10.90;99.90
21310;DHT22;10814;51.722;8.772;2024-02-21T15:49:26;10.90;99.90
21310;DHT22;10814;51.722;8.772;2024-02-21T15:51:52;10.90;99.90
21310;DHT22;10814;51.722;8.772;2024-02-21T15:54:19;10.90;99.90